sensor_id;sensor_type;location;lat;lon;timestamp;P1;durP1;ratioP1;P2;durP2;ratioP2
51738;SDS011;37815;52.692;6.226;2023-03-12T00:04:08;3.95;;;2.33;;
51738;SDS011;37815;52.692;6.226;2023-03-12T00:09:08;4.10;;;2.30;;
51738;SDS011;37815;52.692;6.226;2023-03-12T00:14:09;3.47;;;2.05;;
51738;SDS011;37815;52.692;6.226;2023-03-12T00:19:10;3.75;;;1.85;;
51738;SDS011;37815;52.692;6.226;2023-03-12T00:24:11;3.40;;;2.00;;
51738;SDS011;37815;52.692;6.226;2023-03-12T00:29:12;4.05;;;2.28;;
51738;SDS011;37815;52.692;6.226;2023-03-12T00:34:13;3.00;;;2.05;;
51738;SDS011;37815;52.692;6.226;2023-03-12T00:39:13;3.97;;;1.98;;
51738;SDS011;37815;52.692;6.226;2023-03-12T00:44:14;3.97;;;2.00;;
51738;SDS011;37815;52.692;6.226;2023-03-12T00:49:15;5.22;;;2.00;;
51738;SDS011;37815;52.692;6.226;2023-03-12T00:54:15;3.30;;;2.10;;
51738;SDS011;37815;52.692;6.226;2023-03-12T00:59:16;4.97;;;2.35;;
51738;SDS011;37815;52.692;6.226;2023-03-12T01:04:16;3.40;;;1.92;;
51738;SDS011;37815;52.692;6.226;2023-03-12T01:09:17;3.38;;;1.90;;
51738;SDS011;37815;52.692;6.226;2023-03-12T01:14:18;3.70;;;2.00;;
51738;SDS011;37815;52.692;6.226;2023-03-12T01:19:18;2.90;;;1.98;;
51738;SDS011;37815;52.692;6.226;2023-03-12T01:24:19;3.92;;;2.05;;
51738;SDS011;37815;52.692;6.226;2023-03-12T01:29:20;3.58;;;2.28;;
51738;SDS011;37815;52.692;6.226;2023-03-12T01:34:21;3.22;;;1.90;;
51738;SDS011;37815;52.692;6.226;2023-03-12T01:39:23;2.60;;;1.75;;
51738;SDS011;37815;52.692;6.226;2023-03-12T01:44:24;3.90;;;2.00;;
51738;SDS011;37815;52.692;6.226;2023-03-12T01:49:32;3.05;;;1.80;;
51738;SDS011;37815;52.692;6.226;2023-03-12T01:54:40;3.58;;;1.70;;
51738;SDS011;37815;52.692;6.226;2023-03-12T01:59:45;2.55;;;1.73;;
51738;SDS011;37815;52.692;6.226;2023-03-12T02:04:52;4.35;;;1.90;;
51738;SDS011;37815;52.692;6.226;2023-03-12T02:10:10;6.25;;;1.75;;
51738;SDS011;37815;52.692;6.226;2023-03-12T02:15:13;2.42;;;1.65;;
51738;SDS011;37815;52.692;6.226;2023-03-12T02:20:16;4.40;;;1.60;;
51738;SDS011;37815;52.692;6.226;2023-03-12T02:25:33;3.47;;;1.67;;
51738;SDS011;37815;52.692;6.226;2023-03-12T02:30:37;2.95;;;1.70;;
51738;SDS011;37815;52.692;6.226;2023-03-12T02:35:41;4.00;;;1.55;;
51738;SDS011;37815;52.692;6.226;2023-03-12T02:40:43;4.07;;;1.60;;
51738;SDS011;37815;52.692;6.226;2023-03-12T02:45:46;2.50;;;1.73;;
51738;SDS011;37815;52.692;6.226;2023-03-12T02:50:47;3.35;;;1.83;;
51738;SDS011;37815;52.692;6.226;2023-03-12T02:55:48;2.72;;;1.63;;
51738;SDS011;37815;52.692;6.226;2023-03-12T03:00:48;2.20;;;1.42;;
51738;SDS011;37815;52.692;6.226;2023-03-12T03:05:52;3.45;;;1.77;;
51738;SDS011;37815;52.692;6.226;2023-03-12T03:10:53;3.08;;;1.70;;
51738;SDS011;37815;52.692;6.226;2023-03-12T03:15:54;3.72;;;1.58;;
51738;SDS011;37815;52.692;6.226;2023-03-12T03:20:57;2.67;;;1.88;;
51738;SDS011;37815;52.692;6.226;2023-03-12T03:25:59;2.80;;;2.10;;
51738;SDS011;37815;52.692;6.226;2023-03-12T03:30:59;4.32;;;1.52;;
51738;SDS011;37815;52.692;6.226;2023-03-12T03:36:01;3.90;;;1.90;;
51738;SDS011;37815;52.692;6.226;2023-03-12T03:41:03;3.65;;;1.80;;
51738;SDS011;37815;52.692;6.226;2023-03-12T03:46:04;2.97;;;1.90;;
51738;SDS011;37815;52.692;6.226;2023-03-12T03:51:05;4.35;;;2.05;;
51738;SDS011;37815;52.692;6.226;2023-03-12T03:56:08;2.70;;;1.80;;
51738;SDS011;37815;52.692;6.226;2023-03-12T04:01:12;2.25;;;1.50;;
51738;SDS011;37815;52.692;6.226;2023-03-12T04:06:13;4.32;;;1.90;;
51738;SDS011;37815;52.692;6.226;2023-03-12T04:11:15;2.67;;;1.85;;
51738;SDS011;37815;52.692;6.226;2023-03-12T04:16:18;4.10;;;2.05;;
51738;SDS011;37815;52.692;6.226;2023-03-12T04:21:19;3.13;;;1.95;;
51738;SDS011;37815;52.692;6.226;2023-03-12T04:26:19;3.10;;;2.03;;
51738;SDS011;37815;52.692;6.226;2023-03-12T04:31:20;2.88;;;2.17;;
51738;SDS011;37815;52.692;6.226;2023-03-12T04:36:21;4.80;;;2.63;;
51738;SDS011;37815;52.692;6.226;2023-03-12T04:41:21;3.92;;;3.03;;
51738;SDS011;37815;52.692;6.226;2023-03-12T04:46:22;3.22;;;2.03;;
51738;SDS011;37815;52.692;6.226;2023-03-12T04:51:23;3.70;;;2.25;;
51738;SDS011;37815;52.692;6.226;2023-03-12T04:56:24;5.28;;;2.30;;
51738;SDS011;37815;52.692;6.226;2023-03-12T05:01:26;4.13;;;2.05;;
51738;SDS011;37815;52.692;6.226;2023-03-12T05:06:28;5.03;;;2.47;;
51738;SDS011;37815;52.692;6.226;2023-03-12T05:11:29;4.30;;;2.20;;
51738;SDS011;37815;52.692;6.226;2023-03-12T05:16:30;3.72;;;2.08;;
51738;SDS011;37815;52.692;6.226;2023-03-12T05:21:30;5.47;;;2.80;;
51738;SDS011;37815;52.692;6.226;2023-03-12T05:26:32;4.65;;;2.22;;
51738;SDS011;37815;52.692;6.226;2023-03-12T05:31:33;3.50;;;1.95;;
51738;SDS011;37815;52.692;6.226;2023-03-12T05:36:34;3.45;;;2.20;;
51738;SDS011;37815;52.692;6.226;2023-03-12T05:41:34;3.88;;;2.28;;
51738;SDS011;37815;52.692;6.226;2023-03-12T05:46:35;5.47;;;2.28;;
51738;SDS011;37815;52.692;6.226;2023-03-12T05:51:35;3.60;;;2.38;;
51738;SDS011;37815;52.692;6.226;2023-03-12T05:56:36;4.38;;;2.40;;
51738;SDS011;37815;52.692;6.226;2023-03-12T06:01:37;2.88;;;2.15;;
51738;SDS011;37815;52.692;6.226;2023-03-12T06:06:38;5.65;;;2.67;;
51738;SDS011;37815;52.692;6.226;2023-03-12T06:11:38;4.65;;;2.40;;
51738;SDS011;37815;52.692;6.226;2023-03-12T06:16:39;4.55;;;2.50;;
51738;SDS011;37815;52.692;6.226;2023-03-12T06:21:41;4.90;;;2.75;;
51738;SDS011;37815;52.692;6.226;2023-03-12T06:26:42;4.35;;;2.58;;
51738;SDS011;37815;52.692;6.226;2023-03-12T06:31:42;3.53;;;2.53;;
51738;SDS011;37815;52.692;6.226;2023-03-12T06:36:43;5.72;;;2.58;;
51738;SDS011;37815;52.692;6.226;2023-03-12T06:41:44;6.25;;;3.30;;
51738;SDS011;37815;52.692;6.226;2023-03-12T06:46:44;3.53;;;2.60;;
51738;SDS011;37815;52.692;6.226;2023-03-12T06:51:45;5.35;;;2.50;;
51738;SDS011;37815;52.692;6.226;2023-03-12T06:56:45;4.88;;;2.90;;
51738;SDS011;37815;52.692;6.226;2023-03-12T07:01:46;7.43;;;3.00;;
51738;SDS011;37815;52.692;6.226;2023-03-12T07:06:47;6.55;;;3.28;;
51738;SDS011;37815;52.692;6.226;2023-03-12T07:11:50;3.75;;;2.80;;
51738;SDS011;37815;52.692;6.226;2023-03-12T07:16:50;5.85;;;3.08;;
51738;SDS011;37815;52.692;6.226;2023-03-12T07:21:51;4.10;;;2.80;;
51738;SDS011;37815;52.692;6.226;2023-03-12T07:26:52;4.57;;;3.10;;
51738;SDS011;37815;52.692;6.226;2023-03-12T07:31:52;5.07;;;2.97;;
51738;SDS011;37815;52.692;6.226;2023-03-12T07:36:53;4.30;;;2.95;;
51738;SDS011;37815;52.692;6.226;2023-03-12T07:41:55;5.05;;;3.28;;
51738;SDS011;37815;52.692;6.226;2023-03-12T07:46:56;5.32;;;2.85;;
51738;SDS011;37815;52.692;6.226;2023-03-12T07:51:56;5.32;;;2.67;;
51738;SDS011;37815;52.692;6.226;2023-03-12T07:56:58;5.97;;;2.58;;
51738;SDS011;37815;52.692;6.226;2023-03-12T08:01:58;6.82;;;3.20;;
51738;SDS011;37815;52.692;6.226;2023-03-12T08:07:00;5.13;;;3.30;;
51738;SDS011;37815;52.692;6.226;2023-03-12T08:12:01;8.18;;;3.50;;
51738;SDS011;37815;52.692;6.226;2023-03-12T08:17:02;7.03;;;3.22;;
51738;SDS011;37815;52.692;6.226;2023-03-12T08:22:03;5.07;;;2.95;;
51738;SDS011;37815;52.692;6.226;2023-03-12T08:27:03;5.10;;;3.30;;
51738;SDS011;37815;52.692;6.226;2023-03-12T08:32:04;4.50;;;3.13;;
51738;SDS011;37815;52.692;6.226;2023-03-12T08:37:05;6.38;;;2.67;;
51738;SDS011;37815;52.692;6.226;2023-03-12T08:42:05;5.13;;;3.20;;
51738;SDS011;37815;52.692;6.226;2023-03-12T08:47:06;4.68;;;2.92;;
51738;SDS011;37815;52.692;6.226;2023-03-12T08:52:07;4.30;;;2.85;;
51738;SDS011;37815;52.692;6.226;2023-03-12T08:57:07;6.03;;;2.72;;
51738;SDS011;37815;52.692;6.226;2023-03-12T09:02:09;3.47;;;2.63;;
51738;SDS011;37815;52.692;6.226;2023-03-12T09:07:11;5.28;;;3.00;;
51738;SDS011;37815;52.692;6.226;2023-03-12T09:12:13;4.68;;;2.80;;
51738;SDS011;37815;52.692;6.226;2023-03-12T09:17:13;5.82;;;2.90;;
51738;SDS011;37815;52.692;6.226;2023-03-12T09:22:14;4.47;;;2.80;;
51738;SDS011;37815;52.692;6.226;2023-03-12T09:27:14;5.32;;;2.85;;
51738;SDS011;37815;52.692;6.226;2023-03-12T09:32:15;6.00;;;2.85;;
51738;SDS011;37815;52.692;6.226;2023-03-12T09:37:16;5.15;;;3.35;;
51738;SDS011;37815;52.692;6.226;2023-03-12T09:42:28;3.72;;;2.40;;
51738;SDS011;37815;52.692;6.226;2023-03-12T09:47:36;5.57;;;2.75;;
51738;SDS011;37815;52.692;6.226;2023-03-12T09:57:56;3.22;;;2.60;;
51738;SDS011;37815;52.692;6.226;2023-03-12T10:13:23;6.30;;;2.83;;
51738;SDS011;37815;52.692;6.226;2023-03-12T10:24:12;4.80;;;2.50;;
51738;SDS011;37815;52.692;6.226;2023-03-12T10:29:33;3.67;;;2.72;;
51738;SDS011;37815;52.692;6.226;2023-03-12T10:34:51;5.28;;;2.67;;
51738;SDS011;37815;52.692;6.226;2023-03-12T10:39:55;3.58;;;2.85;;
51738;SDS011;37815;52.692;6.226;2023-03-12T10:45:00;4.22;;;3.10;;
51738;SDS011;37815;52.692;6.226;2023-03-12T10:55:39;4.30;;;2.97;;
51738;SDS011;37815;52.692;6.226;2023-03-12T11:00:40;4.45;;;3.00;;
51738;SDS011;37815;52.692;6.226;2023-03-12T11:05:54;5.57;;;2.88;;
51738;SDS011;37815;52.692;6.226;2023-03-12T11:10:58;4.13;;;2.60;;
51738;SDS011;37815;52.692;6.226;2023-03-12T11:16:00;6.50;;;3.30;;
51738;SDS011;37815;52.692;6.226;2023-03-12T11:21:20;5.97;;;3.58;;
51738;SDS011;37815;52.692;6.226;2023-03-12T11:26:22;4.97;;;2.88;;
51738;SDS011;37815;52.692;6.226;2023-03-12T11:31:43;7.68;;;2.80;;
51738;SDS011;37815;52.692;6.226;2023-03-12T12:34:40;9.55;;;3.92;;
51738;SDS011;37815;52.692;6.226;2023-03-12T12:40:29;7.93;;;3.78;;
51738;SDS011;37815;52.692;6.226;2023-03-12T12:45:11;6.70;;;4.03;;
51738;SDS011;37815;52.692;6.226;2023-03-12T12:50:20;10.70;;;4.22;;
51738;SDS011;37815;52.692;6.226;2023-03-12T12:55:27;10.18;;;4.05;;
51738;SDS011;37815;52.692;6.226;2023-03-12T13:10:56;9.18;;;4.20;;
51738;SDS011;37815;52.692;6.226;2023-03-12T13:21:28;8.70;;;3.85;;
51738;SDS011;37815;52.692;6.226;2023-03-12T13:26:55;9.60;;;4.38;;
51738;SDS011;37815;52.692;6.226;2023-03-12T13:32:04;11.07;;;4.05;;
51738;SDS011;37815;52.692;6.226;2023-03-12T13:43:08;18.70;;;5.40;;
51738;SDS011;37815;52.692;6.226;2023-03-12T13:48:13;10.98;;;4.28;;
51738;SDS011;37815;52.692;6.226;2023-03-12T13:53:21;10.85;;;4.13;;
51738;SDS011;37815;52.692;6.226;2023-03-12T14:04:05;9.55;;;4.28;;
51738;SDS011;37815;52.692;6.226;2023-03-12T14:19:45;8.38;;;3.50;;
51738;SDS011;37815;52.692;6.226;2023-03-12T14:24:57;10.23;;;3.70;;
51738;SDS011;37815;52.692;6.226;2023-03-12T14:40:36;8.85;;;3.40;;
51738;SDS011;37815;52.692;6.226;2023-03-12T14:45:50;11.38;;;4.30;;
51738;SDS011;37815;52.692;6.226;2023-03-12T14:50:56;9.93;;;3.80;;
51738;SDS011;37815;52.692;6.226;2023-03-12T14:56:02;9.85;;;3.40;;
51738;SDS011;37815;52.692;6.226;2023-03-12T15:01:25;13.02;;;3.63;;
51738;SDS011;37815;52.692;6.226;2023-03-12T15:06:32;10.18;;;3.10;;
51738;SDS011;37815;52.692;6.226;2023-03-12T15:11:36;6.32;;;3.10;;
51738;SDS011;37815;52.692;6.226;2023-03-12T15:16:38;11.15;;;3.42;;
51738;SDS011;37815;52.692;6.226;2023-03-12T15:21:39;12.07;;;3.78;;
51738;SDS011;37815;52.692;6.226;2023-03-12T15:26:40;8.32;;;3.28;;
51738;SDS011;37815;52.692;6.226;2023-03-12T15:31:43;9.50;;;2.92;;
51738;SDS011;37815;52.692;6.226;2023-03-12T15:36:46;11.00;;;3.05;;
51738;SDS011;37815;52.692;6.226;2023-03-12T15:41:48;9.52;;;2.78;;
51738;SDS011;37815;52.692;6.226;2023-03-12T15:46:51;9.57;;;3.25;;
51738;SDS011;37815;52.692;6.226;2023-03-12T15:57:22;11.07;;;3.20;;
51738;SDS011;37815;52.692;6.226;2023-03-12T16:02:33;9.45;;;3.40;;
51738;SDS011;37815;52.692;6.226;2023-03-12T16:07:35;9.02;;;3.05;;
51738;SDS011;37815;52.692;6.226;2023-03-12T16:12:36;11.32;;;3.10;;
51738;SDS011;37815;52.692;6.226;2023-03-12T16:17:37;9.13;;;2.72;;
51738;SDS011;37815;52.692;6.226;2023-03-12T16:22:38;10.10;;;3.35;;
51738;SDS011;37815;52.692;6.226;2023-03-12T16:27:59;11.98;;;2.58;;
51738;SDS011;37815;52.692;6.226;2023-03-12T16:33:03;15.57;;;3.03;;
51738;SDS011;37815;52.692;6.226;2023-03-12T16:38:04;12.13;;;3.33;;
51738;SDS011;37815;52.692;6.226;2023-03-12T16:43:06;13.68;;;2.78;;
51738;SDS011;37815;52.692;6.226;2023-03-12T16:48:17;12.32;;;2.55;;
51738;SDS011;37815;52.692;6.226;2023-03-12T16:53:20;15.02;;;3.00;;
51738;SDS011;37815;52.692;6.226;2023-03-12T16:58:21;15.00;;;3.10;;
51738;SDS011;37815;52.692;6.226;2023-03-12T17:03:26;14.73;;;3.33;;
51738;SDS011;37815;52.692;6.226;2023-03-12T17:08:32;20.60;;;3.45;;
51738;SDS011;37815;52.692;6.226;2023-03-12T17:13:34;13.93;;;2.60;;
51738;SDS011;37815;52.692;6.226;2023-03-12T17:18:35;13.65;;;3.38;;
51738;SDS011;37815;52.692;6.226;2023-03-12T17:23:36;14.05;;;2.65;;
51738;SDS011;37815;52.692;6.226;2023-03-12T17:28:37;13.45;;;3.60;;
51738;SDS011;37815;52.692;6.226;2023-03-12T17:33:38;10.52;;;2.50;;
51738;SDS011;37815;52.692;6.226;2023-03-12T17:38:38;19.77;;;3.03;;
51738;SDS011;37815;52.692;6.226;2023-03-12T17:43:39;13.57;;;3.20;;
51738;SDS011;37815;52.692;6.226;2023-03-12T17:48:40;9.25;;;2.22;;
51738;SDS011;37815;52.692;6.226;2023-03-12T17:53:41;9.90;;;2.67;;
51738;SDS011;37815;52.692;6.226;2023-03-12T17:58:42;6.57;;;2.35;;
51738;SDS011;37815;52.692;6.226;2023-03-12T18:03:43;15.50;;;3.47;;
51738;SDS011;37815;52.692;6.226;2023-03-12T18:08:44;17.60;;;2.95;;
51738;SDS011;37815;52.692;6.226;2023-03-12T18:13:45;12.85;;;2.95;;
51738;SDS011;37815;52.692;6.226;2023-03-12T18:18:47;11.52;;;3.55;;
51738;SDS011;37815;52.692;6.226;2023-03-12T18:23:47;8.48;;;2.47;;
51738;SDS011;37815;52.692;6.226;2023-03-12T18:28:48;11.20;;;2.47;;
51738;SDS011;37815;52.692;6.226;2023-03-12T18:33:49;9.10;;;2.53;;
51738;SDS011;37815;52.692;6.226;2023-03-12T18:38:49;11.18;;;3.10;;
51738;SDS011;37815;52.692;6.226;2023-03-12T18:43:52;12.85;;;2.60;;
51738;SDS011;37815;52.692;6.226;2023-03-12T18:48:52;7.47;;;2.05;;
51738;SDS011;37815;52.692;6.226;2023-03-12T18:53:53;13.63;;;2.55;;
51738;SDS011;37815;52.692;6.226;2023-03-12T18:58:54;7.30;;;2.25;;
51738;SDS011;37815;52.692;6.226;2023-03-12T19:03:54;9.95;;;1.92;;
51738;SDS011;37815;52.692;6.226;2023-03-12T19:08:55;6.78;;;2.42;;
51738;SDS011;37815;52.692;6.226;2023-03-12T19:13:56;10.50;;;2.58;;
51738;SDS011;37815;52.692;6.226;2023-03-12T19:18:56;7.38;;;2.30;;
51738;SDS011;37815;52.692;6.226;2023-03-12T19:23:57;7.78;;;2.42;;
51738;SDS011;37815;52.692;6.226;2023-03-12T19:28:57;11.88;;;2.63;;
51738;SDS011;37815;52.692;6.226;2023-03-12T19:33:58;14.45;;;3.08;;
51738;SDS011;37815;52.692;6.226;2023-03-12T19:39:04;12.27;;;2.67;;
51738;SDS011;37815;52.692;6.226;2023-03-12T19:44:07;10.77;;;1.98;;
51738;SDS011;37815;52.692;6.226;2023-03-12T19:49:07;11.07;;;2.42;;
51738;SDS011;37815;52.692;6.226;2023-03-12T19:54:08;8.63;;;2.47;;
51738;SDS011;37815;52.692;6.226;2023-03-12T19:59:09;8.70;;;2.47;;
51738;SDS011;37815;52.692;6.226;2023-03-12T20:04:09;14.07;;;2.47;;
51738;SDS011;37815;52.692;6.226;2023-03-12T20:09:10;7.68;;;2.05;;
51738;SDS011;37815;52.692;6.226;2023-03-12T20:14:11;4.75;;;1.88;;
51738;SDS011;37815;52.692;6.226;2023-03-12T20:19:11;6.35;;;2.15;;
51738;SDS011;37815;52.692;6.226;2023-03-12T20:24:16;13.80;;;1.73;;
51738;SDS011;37815;52.692;6.226;2023-03-12T20:29:16;9.88;;;2.38;;
51738;SDS011;37815;52.692;6.226;2023-03-12T20:34:17;7.75;;;2.78;;
51738;SDS011;37815;52.692;6.226;2023-03-12T20:39:18;7.28;;;2.15;;
51738;SDS011;37815;52.692;6.226;2023-03-12T20:44:18;9.43;;;2.10;;
51738;SDS011;37815;52.692;6.226;2023-03-12T20:49:19;4.80;;;2.00;;
51738;SDS011;37815;52.692;6.226;2023-03-12T20:54:19;4.80;;;2.00;;
51738;SDS011;37815;52.692;6.226;2023-03-12T20:59:20;7.72;;;2.03;;
51738;SDS011;37815;52.692;6.226;2023-03-12T21:04:21;9.88;;;2.55;;
51738;SDS011;37815;52.692;6.226;2023-03-12T21:09:21;4.95;;;2.10;;
51738;SDS011;37815;52.692;6.226;2023-03-12T21:14:22;6.78;;;2.00;;
51738;SDS011;37815;52.692;6.226;2023-03-12T21:19:23;6.78;;;1.63;;
51738;SDS011;37815;52.692;6.226;2023-03-12T21:24:25;5.72;;;1.75;;
51738;SDS011;37815;52.692;6.226;2023-03-12T21:29:26;6.60;;;1.75;;
51738;SDS011;37815;52.692;6.226;2023-03-12T21:34:27;5.97;;;1.98;;
51738;SDS011;37815;52.692;6.226;2023-03-12T21:39:28;6.78;;;1.83;;
51738;SDS011;37815;52.692;6.226;2023-03-12T21:44:29;5.25;;;2.03;;
51738;SDS011;37815;52.692;6.226;2023-03-12T21:49:31;9.13;;;1.88;;
51738;SDS011;37815;52.692;6.226;2023-03-12T21:54:33;5.55;;;1.50;;
51738;SDS011;37815;52.692;6.226;2023-03-12T21:59:34;5.13;;;1.40;;
51738;SDS011;37815;52.692;6.226;2023-03-12T22:04:35;7.18;;;1.60;;
51738;SDS011;37815;52.692;6.226;2023-03-12T22:09:35;5.72;;;1.42;;
51738;SDS011;37815;52.692;6.226;2023-03-12T22:14:36;7.70;;;2.10;;
51738;SDS011;37815;52.692;6.226;2023-03-12T22:19:37;6.53;;;2.05;;
51738;SDS011;37815;52.692;6.226;2023-03-12T22:24:37;8.00;;;2.20;;
51738;SDS011;37815;52.692;6.226;2023-03-12T22:29:38;4.35;;;1.50;;
51738;SDS011;37815;52.692;6.226;2023-03-12T22:34:38;5.13;;;1.73;;
51738;SDS011;37815;52.692;6.226;2023-03-12T22:39:39;9.23;;;2.67;;
51738;SDS011;37815;52.692;6.226;2023-03-12T22:44:42;6.72;;;2.15;;
51738;SDS011;37815;52.692;6.226;2023-03-12T22:49:45;9.30;;;1.90;;
51738;SDS011;37815;52.692;6.226;2023-03-12T22:54:46;7.80;;;1.80;;
51738;SDS011;37815;52.692;6.226;2023-03-12T22:59:46;9.45;;;2.05;;
51738;SDS011;37815;52.692;6.226;2023-03-12T23:04:47;8.63;;;2.30;;
51738;SDS011;37815;52.692;6.226;2023-03-12T23:09:47;8.55;;;2.42;;
51738;SDS011;37815;52.692;6.226;2023-03-12T23:14:48;9.35;;;2.33;;
51738;SDS011;37815;52.692;6.226;2023-03-12T23:19:49;7.47;;;2.22;;
51738;SDS011;37815;52.692;6.226;2023-03-12T23:24:49;10.40;;;2.50;;
51738;SDS011;37815;52.692;6.226;2023-03-12T23:29:50;6.13;;;2.13;;
51738;SDS011;37815;52.692;6.226;2023-03-12T23:34:50;7.55;;;2.30;;
51738;SDS011;37815;52.692;6.226;2023-03-12T23:39:51;8.07;;;2.28;;
51738;SDS011;37815;52.692;6.226;2023-03-12T23:44:52;12.32;;;2.70;;
51738;SDS011;37815;52.692;6.226;2023-03-12T23:49:52;13.52;;;2.63;;
51738;SDS011;37815;52.692;6.226;2023-03-12T23:54:53;7.78;;;2.50;;
51738;SDS011;37815;52.692;6.226;2023-03-12T23:59:53;10.93;;;2.88;;
